sensor_id;sensor_type;location;lat;lon;timestamp;P1;durP1;ratioP1;P2;durP2;ratioP2
53052;SDS011;38934;52.690;6.184;2022-09-01T00:00:38;3.78;;;2.25;;
53052;SDS011;38934;52.690;6.184;2022-09-01T00:03:06;4.95;;;2.58;;
53052;SDS011;38934;52.690;6.184;2022-09-01T00:05:34;7.55;;;2.38;;
53052;SDS011;38934;52.690;6.184;2022-09-01T00:08:01;2.25;;;2.05;;
53052;SDS011;38934;52.690;6.184;2022-09-01T00:10:28;2.47;;;2.00;;
53052;SDS011;38934;52.690;6.184;2022-09-01T00:12:54;3.67;;;2.20;;
53052;SDS011;38934;52.690;6.184;2022-09-01T00:15:20;2.53;;;2.13;;
53052;SDS011;38934;52.690;6.184;2022-09-01T00:17:46;3.58;;;2.22;;
53052;SDS011;38934;52.690;6.184;2022-09-01T00:20:12;3.63;;;2.10;;
53052;SDS011;38934;52.690;6.184;2022-09-01T00:22:38;2.78;;;2.25;;
53052;SDS011;38934;52.690;6.184;2022-09-01T00:25:04;6.45;;;2.40;;
53052;SDS011;38934;52.690;6.184;2022-09-01T00:27:30;2.35;;;2.10;;
53052;SDS011;38934;52.690;6.184;2022-09-01T00:29:56;4.35;;;2.38;;
53052;SDS011;38934;52.690;6.184;2022-09-01T00:32:22;2.67;;;2.22;;
53052;SDS011;38934;52.690;6.184;2022-09-01T00:34:49;3.25;;;2.40;;
53052;SDS011;38934;52.690;6.184;2022-09-01T00:37:15;6.68;;;2.60;;
53052;SDS011;38934;52.690;6.184;2022-09-01T00:39:40;3.92;;;2.70;;
53052;SDS011;38934;52.690;6.184;2022-09-01T00:42:06;2.58;;;2.10;;
53052;SDS011;38934;52.690;6.184;2022-09-01T00:44:32;4.00;;;2.42;;
53052;SDS011;38934;52.690;6.184;2022-09-01T00:46:58;3.83;;;2.05;;
53052;SDS011;38934;52.690;6.184;2022-09-01T00:49:34;3.10;;;2.40;;
53052;SDS011;38934;52.690;6.184;2022-09-01T00:52:04;5.15;;;2.38;;
53052;SDS011;38934;52.690;6.184;2022-09-01T00:54:35;6.30;;;2.40;;
53052;SDS011;38934;52.690;6.184;2022-09-01T00:57:04;2.72;;;2.40;;
53052;SDS011;38934;52.690;6.184;2022-09-01T00:59:30;2.80;;;2.28;;
53052;SDS011;38934;52.690;6.184;2022-09-01T01:01:56;3.67;;;2.20;;
53052;SDS011;38934;52.690;6.184;2022-09-01T01:04:22;2.97;;;2.45;;
53052;SDS011;38934;52.690;6.184;2022-09-01T01:06:50;2.80;;;2.25;;
53052;SDS011;38934;52.690;6.184;2022-09-01T01:09:25;3.50;;;2.40;;
53052;SDS011;38934;52.690;6.184;2022-09-01T01:11:54;5.80;;;2.28;;
53052;SDS011;38934;52.690;6.184;2022-09-01T01:14:21;3.17;;;2.30;;
53052;SDS011;38934;52.690;6.184;2022-09-01T01:16:48;2.42;;;2.20;;
53052;SDS011;38934;52.690;6.184;2022-09-01T01:19:22;3.63;;;2.70;;
53052;SDS011;38934;52.690;6.184;2022-09-01T01:22:12;3.63;;;2.30;;
53052;SDS011;38934;52.690;6.184;2022-09-01T01:25:01;3.80;;;2.30;;
53052;SDS011;38934;52.690;6.184;2022-09-01T01:27:33;4.70;;;2.50;;
53052;SDS011;38934;52.690;6.184;2022-09-01T01:30:00;5.82;;;2.40;;
53052;SDS011;38934;52.690;6.184;2022-09-01T01:32:26;2.95;;;2.00;;
53052;SDS011;38934;52.690;6.184;2022-09-01T01:34:53;2.58;;;2.10;;
53052;SDS011;38934;52.690;6.184;2022-09-01T01:37:20;4.13;;;2.50;;
53052;SDS011;38934;52.690;6.184;2022-09-01T01:39:48;3.80;;;2.33;;
53052;SDS011;38934;52.690;6.184;2022-09-01T01:42:13;3.65;;;2.40;;
53052;SDS011;38934;52.690;6.184;2022-09-01T01:44:39;3.45;;;2.53;;
53052;SDS011;38934;52.690;6.184;2022-09-01T01:47:06;4.03;;;2.30;;
53052;SDS011;38934;52.690;6.184;2022-09-01T01:49:37;2.42;;;2.22;;
53052;SDS011;38934;52.690;6.184;2022-09-01T01:52:07;2.30;;;2.10;;
53052;SDS011;38934;52.690;6.184;2022-09-01T01:54:37;4.18;;;2.60;;
53052;SDS011;38934;52.690;6.184;2022-09-01T01:57:03;2.58;;;2.15;;
53052;SDS011;38934;52.690;6.184;2022-09-01T01:59:29;2.58;;;2.22;;
53052;SDS011;38934;52.690;6.184;2022-09-01T02:01:55;3.55;;;2.00;;
53052;SDS011;38934;52.690;6.184;2022-09-01T02:04:21;2.45;;;2.20;;
53052;SDS011;38934;52.690;6.184;2022-09-01T02:06:47;3.80;;;2.30;;
53052;SDS011;38934;52.690;6.184;2022-09-01T02:09:19;2.60;;;2.40;;
53052;SDS011;38934;52.690;6.184;2022-09-01T02:11:47;3.08;;;2.28;;
53052;SDS011;38934;52.690;6.184;2022-09-01T02:14:17;3.72;;;2.22;;
53052;SDS011;38934;52.690;6.184;2022-09-01T02:16:45;3.00;;;2.40;;
53052;SDS011;38934;52.690;6.184;2022-09-01T02:19:11;4.38;;;2.45;;
53052;SDS011;38934;52.690;6.184;2022-09-01T02:21:37;2.80;;;2.35;;
53052;SDS011;38934;52.690;6.184;2022-09-01T02:24:09;2.88;;;2.22;;
53052;SDS011;38934;52.690;6.184;2022-09-01T02:26:40;3.45;;;2.45;;
53052;SDS011;38934;52.690;6.184;2022-09-01T02:29:12;3.63;;;2.63;;
53052;SDS011;38934;52.690;6.184;2022-09-01T02:31:45;3.53;;;2.63;;
53052;SDS011;38934;52.690;6.184;2022-09-01T02:34:13;2.83;;;2.50;;
53052;SDS011;38934;52.690;6.184;2022-09-01T02:36:42;3.95;;;2.67;;
53052;SDS011;38934;52.690;6.184;2022-09-01T02:39:13;2.60;;;2.40;;
53052;SDS011;38934;52.690;6.184;2022-09-01T02:41:48;3.75;;;2.60;;
53052;SDS011;38934;52.690;6.184;2022-09-01T02:44:14;2.72;;;2.35;;
53052;SDS011;38934;52.690;6.184;2022-09-01T02:46:41;4.50;;;2.42;;
53052;SDS011;38934;52.690;6.184;2022-09-01T02:49:08;3.38;;;2.50;;
53052;SDS011;38934;52.690;6.184;2022-09-01T02:51:47;3.42;;;2.42;;
53052;SDS011;38934;52.690;6.184;2022-09-01T02:54:18;5.32;;;2.60;;
53052;SDS011;38934;52.690;6.184;2022-09-01T02:56:48;3.90;;;2.72;;
53052;SDS011;38934;52.690;6.184;2022-09-01T02:59:18;3.10;;;2.60;;
53052;SDS011;38934;52.690;6.184;2022-09-01T03:01:46;5.13;;;2.70;;
53052;SDS011;38934;52.690;6.184;2022-09-01T03:04:14;2.85;;;2.45;;
53052;SDS011;38934;52.690;6.184;2022-09-01T03:06:40;4.82;;;2.67;;
53052;SDS011;38934;52.690;6.184;2022-09-01T03:09:07;3.55;;;2.40;;
53052;SDS011;38934;52.690;6.184;2022-09-01T03:11:36;4.32;;;2.75;;
53052;SDS011;38934;52.690;6.184;2022-09-01T03:14:04;3.03;;;2.65;;
53052;SDS011;38934;52.690;6.184;2022-09-01T03:16:32;5.38;;;3.00;;
53052;SDS011;38934;52.690;6.184;2022-09-01T03:18:59;3.58;;;2.63;;
53052;SDS011;38934;52.690;6.184;2022-09-01T03:21:27;3.25;;;2.88;;
53052;SDS011;38934;52.690;6.184;2022-09-01T03:23:53;3.05;;;2.50;;
53052;SDS011;38934;52.690;6.184;2022-09-01T03:26:20;2.97;;;2.72;;
53052;SDS011;38934;52.690;6.184;2022-09-01T03:28:47;3.13;;;2.83;;
53052;SDS011;38934;52.690;6.184;2022-09-01T03:31:14;3.25;;;2.88;;
53052;SDS011;38934;52.690;6.184;2022-09-01T03:33:42;3.15;;;2.75;;
53052;SDS011;38934;52.690;6.184;2022-09-01T03:36:07;4.80;;;2.97;;
53052;SDS011;38934;52.690;6.184;2022-09-01T03:38:46;3.97;;;2.60;;
53052;SDS011;38934;52.690;6.184;2022-09-01T03:41:14;4.38;;;3.25;;
53052;SDS011;38934;52.690;6.184;2022-09-01T03:43:42;4.53;;;2.67;;
53052;SDS011;38934;52.690;6.184;2022-09-01T03:46:08;3.13;;;2.83;;
53052;SDS011;38934;52.690;6.184;2022-09-01T03:48:36;3.47;;;2.83;;
53052;SDS011;38934;52.690;6.184;2022-09-01T03:51:03;2.90;;;2.60;;
53052;SDS011;38934;52.690;6.184;2022-09-01T03:53:31;4.50;;;2.88;;
53052;SDS011;38934;52.690;6.184;2022-09-01T03:56:01;3.20;;;2.80;;
53052;SDS011;38934;52.690;6.184;2022-09-01T03:58:28;4.40;;;2.88;;
53052;SDS011;38934;52.690;6.184;2022-09-01T04:00:55;3.40;;;2.75;;
53052;SDS011;38934;52.690;6.184;2022-09-01T04:03:25;3.25;;;2.75;;
53052;SDS011;38934;52.690;6.184;2022-09-01T04:05:55;3.95;;;2.78;;
53052;SDS011;38934;52.690;6.184;2022-09-01T04:08:22;3.15;;;2.85;;
53052;SDS011;38934;52.690;6.184;2022-09-01T04:10:51;3.15;;;2.88;;
53052;SDS011;38934;52.690;6.184;2022-09-01T04:13:19;4.30;;;2.90;;
53052;SDS011;38934;52.690;6.184;2022-09-01T04:15:50;3.83;;;3.13;;
53052;SDS011;38934;52.690;6.184;2022-09-01T04:18:16;3.20;;;2.85;;
53052;SDS011;38934;52.690;6.184;2022-09-01T04:20:49;3.88;;;3.20;;
53052;SDS011;38934;52.690;6.184;2022-09-01T04:25:51;4.78;;;3.17;;
53052;SDS011;38934;52.690;6.184;2022-09-01T04:28:19;5.50;;;3.15;;
53052;SDS011;38934;52.690;6.184;2022-09-01T04:30:55;3.42;;;2.70;;
53052;SDS011;38934;52.690;6.184;2022-09-01T04:33:25;3.90;;;2.88;;
53052;SDS011;38934;52.690;6.184;2022-09-01T04:35:59;4.53;;;2.90;;
53052;SDS011;38934;52.690;6.184;2022-09-01T04:38:25;4.55;;;2.97;;
53052;SDS011;38934;52.690;6.184;2022-09-01T04:40:53;3.20;;;2.90;;
53052;SDS011;38934;52.690;6.184;2022-09-01T04:43:21;3.90;;;3.30;;
53052;SDS011;38934;52.690;6.184;2022-09-01T04:45:47;2.88;;;2.65;;
53052;SDS011;38934;52.690;6.184;2022-09-01T04:48:18;5.63;;;3.05;;
53052;SDS011;38934;52.690;6.184;2022-09-01T04:50:46;3.10;;;2.80;;
53052;SDS011;38934;52.690;6.184;2022-09-01T04:53:14;4.00;;;3.20;;
53052;SDS011;38934;52.690;6.184;2022-09-01T04:55:42;3.90;;;3.50;;
53052;SDS011;38934;52.690;6.184;2022-09-01T04:58:09;3.50;;;3.00;;
53052;SDS011;38934;52.690;6.184;2022-09-01T05:00:38;4.95;;;3.47;;
53052;SDS011;38934;52.690;6.184;2022-09-01T05:03:04;6.05;;;3.60;;
53052;SDS011;38934;52.690;6.184;2022-09-01T05:08:07;3.20;;;2.90;;
53052;SDS011;38934;52.690;6.184;2022-09-01T05:10:40;5.03;;;3.50;;
53052;SDS011;38934;52.690;6.184;2022-09-01T05:13:09;7.53;;;3.17;;
53052;SDS011;38934;52.690;6.184;2022-09-01T05:15:39;5.32;;;3.63;;
53052;SDS011;38934;52.690;6.184;2022-09-01T05:18:11;4.68;;;3.08;;
53052;SDS011;38934;52.690;6.184;2022-09-01T05:20:39;4.53;;;3.50;;
53052;SDS011;38934;52.690;6.184;2022-09-01T05:23:06;3.22;;;2.92;;
53052;SDS011;38934;52.690;6.184;2022-09-01T05:25:40;5.43;;;3.60;;
53052;SDS011;38934;52.690;6.184;2022-09-01T05:28:08;4.22;;;3.25;;
53052;SDS011;38934;52.690;6.184;2022-09-01T05:30:36;4.38;;;3.03;;
53052;SDS011;38934;52.690;6.184;2022-09-01T05:33:03;3.50;;;3.20;;
53052;SDS011;38934;52.690;6.184;2022-09-01T05:35:35;3.70;;;3.13;;
53052;SDS011;38934;52.690;6.184;2022-09-01T05:38:02;3.92;;;3.25;;
53052;SDS011;38934;52.690;6.184;2022-09-01T05:40:28;5.75;;;3.08;;
53052;SDS011;38934;52.690;6.184;2022-09-01T05:42:54;3.92;;;3.42;;
53052;SDS011;38934;52.690;6.184;2022-09-01T05:45:20;3.42;;;3.13;;
53052;SDS011;38934;52.690;6.184;2022-09-01T05:47:48;3.97;;;3.28;;
53052;SDS011;38934;52.690;6.184;2022-09-01T05:50:14;5.00;;;3.20;;
53052;SDS011;38934;52.690;6.184;2022-09-01T05:52:40;3.80;;;3.15;;
53052;SDS011;38934;52.690;6.184;2022-09-01T05:55:08;3.65;;;3.05;;
53052;SDS011;38934;52.690;6.184;2022-09-01T05:57:35;4.53;;;3.10;;
53052;SDS011;38934;52.690;6.184;2022-09-01T06:00:05;5.32;;;3.78;;
53052;SDS011;38934;52.690;6.184;2022-09-01T06:02:37;4.10;;;3.25;;
53052;SDS011;38934;52.690;6.184;2022-09-01T06:05:04;4.05;;;3.20;;
53052;SDS011;38934;52.690;6.184;2022-09-01T06:07:30;4.50;;;2.90;;
53052;SDS011;38934;52.690;6.184;2022-09-01T06:09:57;3.45;;;2.90;;
53052;SDS011;38934;52.690;6.184;2022-09-01T06:12:24;5.82;;;3.35;;
53052;SDS011;38934;52.690;6.184;2022-09-01T06:14:52;5.63;;;2.83;;
53052;SDS011;38934;52.690;6.184;2022-09-01T06:17:20;3.70;;;3.30;;
53052;SDS011;38934;52.690;6.184;2022-09-01T06:19:49;4.65;;;3.03;;
53052;SDS011;38934;52.690;6.184;2022-09-01T06:22:22;3.58;;;2.92;;
53052;SDS011;38934;52.690;6.184;2022-09-01T06:24:50;6.13;;;3.05;;
53052;SDS011;38934;52.690;6.184;2022-09-01T06:27:18;3.05;;;2.67;;
53052;SDS011;38934;52.690;6.184;2022-09-01T06:29:45;3.67;;;2.70;;
53052;SDS011;38934;52.690;6.184;2022-09-01T06:32:15;3.53;;;2.90;;
53052;SDS011;38934;52.690;6.184;2022-09-01T06:34:42;3.67;;;3.28;;
53052;SDS011;38934;52.690;6.184;2022-09-01T06:37:14;4.32;;;2.97;;
53052;SDS011;38934;52.690;6.184;2022-09-01T06:39:39;3.80;;;2.90;;
53052;SDS011;38934;52.690;6.184;2022-09-01T06:42:05;4.55;;;2.70;;
53052;SDS011;38934;52.690;6.184;2022-09-01T06:44:34;3.83;;;3.05;;
53052;SDS011;38934;52.690;6.184;2022-09-01T06:47:00;4.05;;;3.13;;
53052;SDS011;38934;52.690;6.184;2022-09-01T06:49:25;3.67;;;3.08;;
53052;SDS011;38934;52.690;6.184;2022-09-01T06:52:00;3.45;;;3.15;;
53052;SDS011;38934;52.690;6.184;2022-09-01T06:54:28;5.50;;;3.55;;
53052;SDS011;38934;52.690;6.184;2022-09-01T06:56:58;4.90;;;3.25;;
53052;SDS011;38934;52.690;6.184;2022-09-01T06:59:28;3.40;;;3.10;;
53052;SDS011;38934;52.690;6.184;2022-09-01T07:01:56;5.07;;;3.50;;
53052;SDS011;38934;52.690;6.184;2022-09-01T07:04:25;5.40;;;3.05;;
53052;SDS011;38934;52.690;6.184;2022-09-01T07:06:53;3.70;;;2.80;;
53052;SDS011;38934;52.690;6.184;2022-09-01T07:09:19;4.32;;;2.63;;
53052;SDS011;38934;52.690;6.184;2022-09-01T07:11:45;3.05;;;2.75;;
53052;SDS011;38934;52.690;6.184;2022-09-01T07:14:11;2.92;;;2.72;;
53052;SDS011;38934;52.690;6.184;2022-09-01T07:16:39;4.57;;;3.10;;
53052;SDS011;38934;52.690;6.184;2022-09-01T07:19:07;4.13;;;2.80;;
53052;SDS011;38934;52.690;6.184;2022-09-01T07:21:37;3.30;;;2.97;;
53052;SDS011;38934;52.690;6.184;2022-09-01T07:24:03;2.78;;;2.58;;
53052;SDS011;38934;52.690;6.184;2022-09-01T07:26:30;4.40;;;2.80;;
53052;SDS011;38934;52.690;6.184;2022-09-01T07:28:58;3.25;;;2.80;;
53052;SDS011;38934;52.690;6.184;2022-09-01T07:31:27;4.78;;;2.88;;
53052;SDS011;38934;52.690;6.184;2022-09-01T07:33:57;3.28;;;2.92;;
53052;SDS011;38934;52.690;6.184;2022-09-01T07:36:24;2.85;;;2.55;;
53052;SDS011;38934;52.690;6.184;2022-09-01T07:38:50;4.00;;;2.85;;
53052;SDS011;38934;52.690;6.184;2022-09-01T07:41:21;3.03;;;2.75;;
53052;SDS011;38934;52.690;6.184;2022-09-01T07:43:48;5.63;;;2.72;;
53052;SDS011;38934;52.690;6.184;2022-09-01T07:46:19;4.43;;;2.58;;
53052;SDS011;38934;52.690;6.184;2022-09-01T07:48:47;2.78;;;2.40;;
53052;SDS011;38934;52.690;6.184;2022-09-01T07:51:15;2.70;;;2.38;;
53052;SDS011;38934;52.690;6.184;2022-09-01T07:53:45;3.65;;;2.72;;
53052;SDS011;38934;52.690;6.184;2022-09-01T07:56:12;2.65;;;2.20;;
53052;SDS011;38934;52.690;6.184;2022-09-01T07:58:39;2.92;;;2.20;;
53052;SDS011;38934;52.690;6.184;2022-09-01T08:01:10;3.28;;;2.30;;
53052;SDS011;38934;52.690;6.184;2022-09-01T08:03:38;2.97;;;2.20;;
53052;SDS011;38934;52.690;6.184;2022-09-01T08:06:09;4.20;;;2.20;;
53052;SDS011;38934;52.690;6.184;2022-09-01T08:08:37;3.65;;;2.30;;
53052;SDS011;38934;52.690;6.184;2022-09-01T08:11:04;4.45;;;2.38;;
53052;SDS011;38934;52.690;6.184;2022-09-01T08:13:31;2.95;;;2.10;;
53052;SDS011;38934;52.690;6.184;2022-09-01T08:16:04;3.13;;;2.10;;
53052;SDS011;38934;52.690;6.184;2022-09-01T08:18:30;4.13;;;2.38;;
53052;SDS011;38934;52.690;6.184;2022-09-01T08:20:56;2.10;;;2.00;;
53052;SDS011;38934;52.690;6.184;2022-09-01T08:23:22;3.00;;;2.05;;
53052;SDS011;38934;52.690;6.184;2022-09-01T08:25:51;2.70;;;2.30;;
53052;SDS011;38934;52.690;6.184;2022-09-01T08:28:17;4.28;;;2.10;;
53052;SDS011;38934;52.690;6.184;2022-09-01T08:30:44;4.95;;;1.80;;
53052;SDS011;38934;52.690;6.184;2022-09-01T08:33:12;2.45;;;1.95;;
53052;SDS011;38934;52.690;6.184;2022-09-01T08:35:39;4.35;;;1.90;;
53052;SDS011;38934;52.690;6.184;2022-09-01T08:38:06;1.88;;;1.60;;
53052;SDS011;38934;52.690;6.184;2022-09-01T08:40:33;2.10;;;1.70;;
53052;SDS011;38934;52.690;6.184;2022-09-01T08:43:12;2.15;;;1.80;;
53052;SDS011;38934;52.690;6.184;2022-09-01T08:46:02;2.38;;;1.83;;
53052;SDS011;38934;52.690;6.184;2022-09-01T08:51:17;5.00;;;2.08;;
53052;SDS011;38934;52.690;6.184;2022-09-01T08:56:42;2.42;;;1.58;;
53052;SDS011;38934;52.690;6.184;2022-09-01T08:59:08;3.72;;;2.00;;
53052;SDS011;38934;52.690;6.184;2022-09-01T09:01:43;3.55;;;1.85;;
53052;SDS011;38934;52.690;6.184;2022-09-01T09:07:26;1.50;;;1.40;;
53052;SDS011;38934;52.690;6.184;2022-09-01T09:11:07;3.38;;;1.23;;
53052;SDS011;38934;52.690;6.184;2022-09-01T09:15:50;3.05;;;1.33;;
53052;SDS011;38934;52.690;6.184;2022-09-01T09:18:43;1.38;;;1.20;;
53052;SDS011;38934;52.690;6.184;2022-09-01T09:29:44;2.75;;;1.35;;
53052;SDS011;38934;52.690;6.184;2022-09-01T09:32:21;3.08;;;1.30;;
53052;SDS011;38934;52.690;6.184;2022-09-01T09:34:49;1.58;;;1.38;;
53052;SDS011;38934;52.690;6.184;2022-09-01T09:37:19;1.27;;;1.10;;
53052;SDS011;38934;52.690;6.184;2022-09-01T09:40:07;1.20;;;1.10;;
53052;SDS011;38934;52.690;6.184;2022-09-01T09:45:27;3.83;;;1.17;;
53052;SDS011;38934;52.690;6.184;2022-09-01T09:48:26;2.15;;;1.35;;
53052;SDS011;38934;52.690;6.184;2022-09-01T09:50:53;1.50;;;1.08;;
53052;SDS011;38934;52.690;6.184;2022-09-01T09:56:01;2.80;;;1.08;;
53052;SDS011;38934;52.690;6.184;2022-09-01T09:58:35;1.02;;;1.02;;
53052;SDS011;38934;52.690;6.184;2022-09-01T10:01:06;1.42;;;1.10;;
53052;SDS011;38934;52.690;6.184;2022-09-01T10:03:46;1.27;;;1.17;;
53052;SDS011;38934;52.690;6.184;2022-09-01T10:08:55;3.85;;;1.20;;
53052;SDS011;38934;52.690;6.184;2022-09-01T10:11:30;1.30;;;1.20;;
53052;SDS011;38934;52.690;6.184;2022-09-01T10:14:04;2.00;;;1.33;;
53052;SDS011;38934;52.690;6.184;2022-09-01T10:16:42;2.58;;;1.30;;
53052;SDS011;38934;52.690;6.184;2022-09-01T10:19:12;1.35;;;1.13;;
53052;SDS011;38934;52.690;6.184;2022-09-01T10:21:40;0.90;;;0.90;;
53052;SDS011;38934;52.690;6.184;2022-09-01T10:24:17;1.75;;;1.10;;
53052;SDS011;38934;52.690;6.184;2022-09-01T10:26:56;2.03;;;1.00;;
53052;SDS011;38934;52.690;6.184;2022-09-01T10:29:27;4.63;;;1.20;;
53052;SDS011;38934;52.690;6.184;2022-09-01T10:32:10;2.25;;;1.10;;
53052;SDS011;38934;52.690;6.184;2022-09-01T10:34:40;4.55;;;1.13;;
53052;SDS011;38934;52.690;6.184;2022-09-01T10:37:06;1.55;;;1.02;;
53052;SDS011;38934;52.690;6.184;2022-09-01T10:39:32;1.10;;;1.00;;
53052;SDS011;38934;52.690;6.184;2022-09-01T10:41:59;0.95;;;0.93;;
53052;SDS011;38934;52.690;6.184;2022-09-01T10:44:36;1.60;;;0.98;;
53052;SDS011;38934;52.690;6.184;2022-09-01T10:47:25;0.95;;;0.90;;
53052;SDS011;38934;52.690;6.184;2022-09-01T10:49:59;1.58;;;1.08;;
53052;SDS011;38934;52.690;6.184;2022-09-01T10:55:12;2.45;;;1.00;;
53052;SDS011;38934;52.690;6.184;2022-09-01T10:57:46;0.77;;;0.75;;
53052;SDS011;38934;52.690;6.184;2022-09-01T11:10:57;1.60;;;1.13;;
53052;SDS011;38934;52.690;6.184;2022-09-01T11:13:45;0.65;;;0.65;;
53052;SDS011;38934;52.690;6.184;2022-09-01T11:16:33;2.28;;;0.93;;
53052;SDS011;38934;52.690;6.184;2022-09-01T11:22:02;0.73;;;0.73;;
53052;SDS011;38934;52.690;6.184;2022-09-01T11:27:03;0.73;;;0.73;;
53052;SDS011;38934;52.690;6.184;2022-09-01T11:29:50;0.70;;;0.70;;
53052;SDS011;38934;52.690;6.184;2022-09-01T11:32:23;2.15;;;1.00;;
53052;SDS011;38934;52.690;6.184;2022-09-01T11:34:55;2.80;;;1.00;;
53052;SDS011;38934;52.690;6.184;2022-09-01T11:37:23;0.80;;;0.80;;
53052;SDS011;38934;52.690;6.184;2022-09-01T11:39:51;0.93;;;0.85;;
53052;SDS011;38934;52.690;6.184;2022-09-01T11:42:22;0.80;;;0.80;;
53052;SDS011;38934;52.690;6.184;2022-09-01T11:45:18;0.70;;;0.70;;
53052;SDS011;38934;52.690;6.184;2022-09-01T11:47:49;3.50;;;1.00;;
53052;SDS011;38934;52.690;6.184;2022-09-01T11:52:59;2.88;;;0.85;;
53052;SDS011;38934;52.690;6.184;2022-09-01T11:55:39;2.22;;;0.75;;
53052;SDS011;38934;52.690;6.184;2022-09-01T11:58:14;0.85;;;0.60;;
53052;SDS011;38934;52.690;6.184;2022-09-01T12:01:18;1.48;;;0.52;;
53052;SDS011;38934;52.690;6.184;2022-09-01T12:03:46;1.02;;;0.70;;
53052;SDS011;38934;52.690;6.184;2022-09-01T12:06:21;1.25;;;0.80;;
53052;SDS011;38934;52.690;6.184;2022-09-01T12:08:59;1.00;;;0.60;;
53052;SDS011;38934;52.690;6.184;2022-09-01T12:11:29;0.80;;;0.80;;
53052;SDS011;38934;52.690;6.184;2022-09-01T12:14:01;0.75;;;0.75;;
53052;SDS011;38934;52.690;6.184;2022-09-01T12:16:37;0.70;;;0.70;;
53052;SDS011;38934;52.690;6.184;2022-09-01T12:19:06;0.57;;;0.57;;
53052;SDS011;38934;52.690;6.184;2022-09-01T12:21:34;0.68;;;0.68;;
53052;SDS011;38934;52.690;6.184;2022-09-01T12:24:21;1.77;;;0.90;;
53052;SDS011;38934;52.690;6.184;2022-09-01T12:26:49;1.25;;;0.70;;
53052;SDS011;38934;52.690;6.184;2022-09-01T12:29:18;1.67;;;0.70;;
53052;SDS011;38934;52.690;6.184;2022-09-01T12:31:45;4.60;;;0.80;;
53052;SDS011;38934;52.690;6.184;2022-09-01T12:39:34;0.57;;;0.57;;
53052;SDS011;38934;52.690;6.184;2022-09-01T12:42:06;0.68;;;0.60;;
53052;SDS011;38934;52.690;6.184;2022-09-01T12:44:58;1.23;;;0.70;;
53052;SDS011;38934;52.690;6.184;2022-09-01T12:52:47;1.38;;;0.70;;
53052;SDS011;38934;52.690;6.184;2022-09-01T12:55:16;0.93;;;0.80;;
53052;SDS011;38934;52.690;6.184;2022-09-01T12:57:53;0.88;;;0.75;;
53052;SDS011;38934;52.690;6.184;2022-09-01T13:00:26;0.80;;;0.80;;
53052;SDS011;38934;52.690;6.184;2022-09-01T13:05:43;1.23;;;0.90;;
53052;SDS011;38934;52.690;6.184;2022-09-01T13:08:12;0.82;;;0.82;;
53052;SDS011;38934;52.690;6.184;2022-09-01T13:10:43;1.80;;;0.77;;
53052;SDS011;38934;52.690;6.184;2022-09-01T13:13:11;0.70;;;0.70;;
53052;SDS011;38934;52.690;6.184;2022-09-01T13:15:41;1.75;;;0.85;;
53052;SDS011;38934;52.690;6.184;2022-09-01T13:18:12;2.20;;;0.88;;
53052;SDS011;38934;52.690;6.184;2022-09-01T13:20:39;2.05;;;1.00;;
53052;SDS011;38934;52.690;6.184;2022-09-01T13:23:06;1.15;;;0.80;;
53052;SDS011;38934;52.690;6.184;2022-09-01T13:25:32;1.85;;;0.80;;
53052;SDS011;38934;52.690;6.184;2022-09-01T13:27:59;0.90;;;0.80;;
53052;SDS011;38934;52.690;6.184;2022-09-01T13:30:27;1.50;;;0.93;;
53052;SDS011;38934;52.690;6.184;2022-09-01T13:32:54;1.48;;;1.00;;
53052;SDS011;38934;52.690;6.184;2022-09-01T13:35:21;2.00;;;0.80;;
53052;SDS011;38934;52.690;6.184;2022-09-01T13:37:47;0.82;;;0.70;;
53052;SDS011;38934;52.690;6.184;2022-09-01T13:40:13;2.85;;;0.80;;
53052;SDS011;38934;52.690;6.184;2022-09-01T13:42:41;3.92;;;0.70;;
53052;SDS011;38934;52.690;6.184;2022-09-01T13:45:08;0.60;;;0.60;;
53052;SDS011;38934;52.690;6.184;2022-09-01T13:47:37;1.55;;;0.63;;
53052;SDS011;38934;52.690;6.184;2022-09-01T13:50:03;0.70;;;0.70;;
53052;SDS011;38934;52.690;6.184;2022-09-01T13:52:29;0.80;;;0.80;;
53052;SDS011;38934;52.690;6.184;2022-09-01T13:54:55;1.33;;;0.70;;
53052;SDS011;38934;52.690;6.184;2022-09-01T13:57:21;1.02;;;0.60;;
53052;SDS011;38934;52.690;6.184;2022-09-01T13:59:46;2.25;;;0.60;;
53052;SDS011;38934;52.690;6.184;2022-09-01T14:02:12;1.88;;;0.70;;
53052;SDS011;38934;52.690;6.184;2022-09-01T14:04:38;1.08;;;0.82;;
53052;SDS011;38934;52.690;6.184;2022-09-01T14:07:04;0.80;;;0.80;;
53052;SDS011;38934;52.690;6.184;2022-09-01T14:09:30;1.20;;;0.77;;
53052;SDS011;38934;52.690;6.184;2022-09-01T14:11:56;1.02;;;0.88;;
53052;SDS011;38934;52.690;6.184;2022-09-01T14:14:21;1.98;;;0.82;;
53052;SDS011;38934;52.690;6.184;2022-09-01T14:16:47;0.70;;;0.70;;
53052;SDS011;38934;52.690;6.184;2022-09-01T14:19:13;1.23;;;0.60;;
53052;SDS011;38934;52.690;6.184;2022-09-01T14:21:40;1.55;;;0.60;;
53052;SDS011;38934;52.690;6.184;2022-09-01T14:24:08;1.52;;;0.73;;
53052;SDS011;38934;52.690;6.184;2022-09-01T14:26:33;0.95;;;0.55;;
53052;SDS011;38934;52.690;6.184;2022-09-01T14:28:59;0.98;;;0.90;;
53052;SDS011;38934;52.690;6.184;2022-09-01T14:31:26;2.53;;;0.70;;
53052;SDS011;38934;52.690;6.184;2022-09-01T14:33:53;0.77;;;0.73;;
53052;SDS011;38934;52.690;6.184;2022-09-01T14:36:23;0.80;;;0.80;;
53052;SDS011;38934;52.690;6.184;2022-09-01T14:38:51;0.95;;;0.60;;
53052;SDS011;38934;52.690;6.184;2022-09-01T14:41:17;0.63;;;0.63;;
53052;SDS011;38934;52.690;6.184;2022-09-01T14:43:48;1.05;;;0.70;;
53052;SDS011;38934;52.690;6.184;2022-09-01T14:46:15;0.73;;;0.63;;
53052;SDS011;38934;52.690;6.184;2022-09-01T14:48:42;1.42;;;0.60;;
53052;SDS011;38934;52.690;6.184;2022-09-01T14:51:16;1.50;;;1.10;;
53052;SDS011;38934;52.690;6.184;2022-09-01T14:53:48;1.48;;;0.77;;
53052;SDS011;38934;52.690;6.184;2022-09-01T14:56:14;0.65;;;0.60;;
53052;SDS011;38934;52.690;6.184;2022-09-01T14:58:44;1.17;;;1.00;;
53052;SDS011;38934;52.690;6.184;2022-09-01T15:01:11;0.95;;;0.60;;
53052;SDS011;38934;52.690;6.184;2022-09-01T15:03:39;1.38;;;0.95;;
53052;SDS011;38934;52.690;6.184;2022-09-01T15:06:06;0.95;;;0.63;;
53052;SDS011;38934;52.690;6.184;2022-09-01T15:08:31;1.38;;;0.63;;
53052;SDS011;38934;52.690;6.184;2022-09-01T15:10:57;0.85;;;0.70;;
53052;SDS011;38934;52.690;6.184;2022-09-01T15:13:25;1.60;;;0.80;;
53052;SDS011;38934;52.690;6.184;2022-09-01T15:15:51;1.13;;;0.70;;
53052;SDS011;38934;52.690;6.184;2022-09-01T15:18:17;1.05;;;0.80;;
53052;SDS011;38934;52.690;6.184;2022-09-01T15:20:43;1.10;;;0.80;;
53052;SDS011;38934;52.690;6.184;2022-09-01T15:23:17;0.75;;;0.50;;
53052;SDS011;38934;52.690;6.184;2022-09-01T15:25:45;0.60;;;0.57;;
53052;SDS011;38934;52.690;6.184;2022-09-01T15:28:12;0.40;;;0.40;;
53052;SDS011;38934;52.690;6.184;2022-09-01T15:30:38;0.65;;;0.65;;
53052;SDS011;38934;52.690;6.184;2022-09-01T15:33:04;0.88;;;0.65;;
53052;SDS011;38934;52.690;6.184;2022-09-01T15:35:31;1.02;;;0.60;;
53052;SDS011;38934;52.690;6.184;2022-09-01T15:37:57;1.55;;;0.70;;
53052;SDS011;38934;52.690;6.184;2022-09-01T15:40:24;0.60;;;0.57;;
53052;SDS011;38934;52.690;6.184;2022-09-01T15:42:50;1.52;;;0.60;;
53052;SDS011;38934;52.690;6.184;2022-09-01T15:45:17;2.05;;;0.70;;
53052;SDS011;38934;52.690;6.184;2022-09-01T15:47:45;3.05;;;0.95;;
53052;SDS011;38934;52.690;6.184;2022-09-01T15:50:13;0.65;;;0.63;;
53052;SDS011;38934;52.690;6.184;2022-09-01T15:55:19;0.85;;;0.60;;
53052;SDS011;38934;52.690;6.184;2022-09-01T15:57:47;0.60;;;0.60;;
53052;SDS011;38934;52.690;6.184;2022-09-01T16:00:13;1.75;;;0.50;;
53052;SDS011;38934;52.690;6.184;2022-09-01T16:02:40;1.00;;;0.70;;
53052;SDS011;38934;52.690;6.184;2022-09-01T16:05:06;0.88;;;0.60;;
53052;SDS011;38934;52.690;6.184;2022-09-01T16:07:32;0.93;;;0.80;;
53052;SDS011;38934;52.690;6.184;2022-09-01T16:09:58;0.93;;;0.70;;
53052;SDS011;38934;52.690;6.184;2022-09-01T16:12:25;1.45;;;0.60;;